createdAt,value
2023-04-15T00:01:08.107Z,71.36
2023-04-15T00:03:37.551Z,71.92
2023-04-15T00:06:05.634Z,72.22
2023-04-15T00:08:33.634Z,72.35
2023-04-15T00:11:05.665Z,71.85
2023-04-15T00:13:33.947Z,71.73
2023-04-15T00:16:02.145Z,72.28
2023-04-15T00:18:31.564Z,71.93
2023-04-15T00:21:00.813Z,72.18
2023-04-15T00:23:29.420Z,71.95
2023-04-15T00:25:57.355Z,71.88
2023-04-15T00:28:25.129Z,72.00
2023-04-15T00:30:52.931Z,72.19
2023-04-15T00:33:20.787Z,72.17
2023-04-15T00:35:48.562Z,71.80
2023-04-15T00:38:17.753Z,71.61
2023-04-15T00:40:45.815Z,72.06
2023-04-15T00:43:13.615Z,71.62
2023-04-15T00:45:41.473Z,71.91
2023-04-15T00:48:12.472Z,72.22
2023-04-15T00:50:40.251Z,71.87
2023-04-15T00:53:07.988Z,72.51
2023-04-15T00:55:37.272Z,71.93
2023-04-15T00:58:05.041Z,72.49
2023-04-15T01:00:32.961Z,72.04
2023-04-15T01:03:00.957Z,72.31
2023-04-15T01:05:29.465Z,72.42
2023-04-15T01:07:57.943Z,72.56
2023-04-15T01:10:25.821Z,72.10
2023-04-15T01:12:55.013Z,72.43
2023-04-15T01:15:22.786Z,72.42
2023-04-15T01:17:51.550Z,72.65
2023-04-15T01:20:20.265Z,72.28
2023-04-15T01:22:48.148Z,72.82
2023-04-15T01:25:19.757Z,72.33
2023-04-15T01:27:49.240Z,72.25
2023-04-15T01:30:17.401Z,73.04
2023-04-15T01:32:45.174Z,73.25
2023-04-15T01:35:13.168Z,72.41
2023-04-15T01:37:41.026Z,73.11
2023-04-15T01:40:09.813Z,72.83
2023-04-15T01:42:38.504Z,73.15
2023-04-15T01:45:09.072Z,73.35
2023-04-15T01:47:38.775Z,73.05
2023-04-15T01:50:08.459Z,72.82
2023-04-15T01:52:36.288Z,72.65
2023-04-15T01:55:04.305Z,72.81
2023-04-15T01:57:32.540Z,73.39
2023-04-15T02:00:00.272Z,73.36
2023-04-15T02:02:29.738Z,72.90
2023-04-15T02:04:58.014Z,72.93
2023-04-15T02:07:25.879Z,73.12
2023-04-15T02:09:54.095Z,73.70
2023-04-15T02:12:22.051Z,73.16
2023-04-15T02:14:50.549Z,73.40
2023-04-15T02:17:18.314Z,73.57
2023-04-15T02:19:48.160Z,74.20
2023-04-15T02:22:18.620Z,73.63
2023-04-15T02:24:47.697Z,73.97
2023-04-15T02:27:18.153Z,73.94
2023-04-15T02:29:46.582Z,73.82
2023-04-15T02:32:14.634Z,73.87
2023-04-15T02:34:42.888Z,74.00
2023-04-15T02:37:13.632Z,73.27
2023-04-15T02:39:41.525Z,74.12
2023-04-15T02:42:09.344Z,74.45
2023-04-15T02:44:37.736Z,73.90
2023-04-15T02:47:07.420Z,74.25
2023-04-15T02:49:35.218Z,73.81
2023-04-15T02:52:03.017Z,73.72
2023-04-15T02:54:33.917Z,74.35
2023-04-15T02:57:02.183Z,74.32
2023-04-15T02:59:30.171Z,74.11
2023-04-15T03:02:00.854Z,74.53
2023-04-15T03:04:30.156Z,74.68
2023-04-15T03:06:57.964Z,74.01
2023-04-15T03:09:26.857Z,74.60
2023-04-15T03:11:57.424Z,74.26
2023-04-15T03:14:25.950Z,74.26
2023-04-15T03:16:53.958Z,74.29
2023-04-15T03:19:21.706Z,75.30
2023-04-15T03:21:49.470Z,74.89
2023-04-15T03:24:17.697Z,74.25
2023-04-15T03:26:46.404Z,74.05
2023-04-15T03:29:18.716Z,75.00
2023-04-15T03:31:47.341Z,75.17
2023-04-15T03:34:15.119Z,74.14
2023-04-15T03:36:42.895Z,75.07
2023-04-15T03:39:10.681Z,74.69
2023-04-15T03:41:38.420Z,75.31
2023-04-15T03:44:06.694Z,74.70
2023-04-15T03:46:35.890Z,74.43
2023-04-15T03:49:04.018Z,75.38
2023-04-15T03:51:32.455Z,74.83
2023-04-15T03:54:00.263Z,75.11
2023-04-15T03:56:27.979Z,75.00
2023-04-15T03:58:55.720Z,74.67
2023-04-15T04:01:23.942Z,75.32
2023-04-15T04:03:53.209Z,74.73
2023-04-15T04:06:21.255Z,75.12
2023-04-15T04:08:49.029Z,75.77
2023-04-15T04:11:17.220Z,74.62
2023-04-15T04:13:44.958Z,75.20
2023-04-15T04:16:12.821Z,75.56
2023-04-15T04:18:40.609Z,75.13
2023-04-15T04:21:09.800Z,75.20
2023-04-15T04:23:37.693Z,75.54
2023-04-15T04:26:05.506Z,75.44
2023-04-15T04:28:33.347Z,74.97
2023-04-15T04:31:01.227Z,75.70
2023-04-15T04:33:29.100Z,75.59
2023-04-15T04:35:56.819Z,74.93
2023-04-15T04:38:25.952Z,74.94
2023-04-15T04:40:53.798Z,75.42
2023-04-15T04:43:21.854Z,75.55
2023-04-15T04:45:49.624Z,75.29
2023-04-15T04:48:17.618Z,75.48
2023-04-15T04:50:46.974Z,75.84
2023-04-15T04:53:14.770Z,75.81
2023-04-15T04:55:43.833Z,75.56
2023-04-15T04:58:11.641Z,75.78
2023-04-15T05:00:39.397Z,75.38
2023-04-15T05:03:07.380Z,75.96
2023-04-15T05:05:35.448Z,75.55
2023-04-15T05:08:03.267Z,75.99
2023-04-15T05:10:31.065Z,76.63
2023-04-15T05:13:00.318Z,76.68
2023-04-15T05:15:28.141Z,76.71
2023-04-15T05:17:55.952Z,75.69
2023-04-15T05:20:23.776Z,76.57
2023-04-15T05:22:51.558Z,75.72
2023-04-15T05:25:19.463Z,75.90
2023-04-15T05:27:47.278Z,76.71
2023-04-15T05:30:16.720Z,75.87
2023-04-15T05:32:44.510Z,76.34
2023-04-15T05:35:12.406Z,75.70
2023-04-15T05:37:40.161Z,75.93
2023-04-15T05:40:10.466Z,76.67
2023-04-15T05:42:38.349Z,76.57
2023-04-15T05:45:09.086Z,76.26
2023-04-15T05:47:38.369Z,76.33
2023-04-15T05:50:07.314Z,76.42
2023-04-15T05:52:35.135Z,77.17
2023-04-15T05:55:02.871Z,76.73
2023-04-15T05:57:30.627Z,76.98
2023-04-15T05:59:58.423Z,76.85
2023-04-15T06:02:26.593Z,76.54
2023-04-15T06:04:55.876Z,76.52
2023-04-15T06:07:23.684Z,76.65
2023-04-15T06:09:51.437Z,77.10
2023-04-15T06:12:19.172Z,77.04
2023-04-15T06:14:46.897Z,77.23
2023-04-15T06:17:14.988Z,76.56
2023-04-15T06:19:42.785Z,76.84
2023-04-15T06:22:11.839Z,77.29
2023-04-15T06:24:39.676Z,76.71
2023-04-15T06:27:07.490Z,76.45
2023-04-15T06:29:35.571Z,76.90
2023-04-15T06:32:03.350Z,77.06
2023-04-15T06:34:31.156Z,77.74
2023-04-15T06:36:58.928Z,77.60
2023-04-15T06:39:28.042Z,76.76
2023-04-15T06:41:56.409Z,77.98
2023-04-15T06:44:24.143Z,76.95
2023-04-15T06:46:51.872Z,78.09
2023-04-15T06:49:19.577Z,77.86
2023-04-15T06:51:47.348Z,77.38
2023-04-15T06:54:15.070Z,77.30
2023-04-15T06:56:44.250Z,77.55
2023-04-15T06:59:12.845Z,77.56
2023-04-15T07:01:41.676Z,77.56
2023-04-15T07:04:09.678Z,77.67
2023-04-15T07:06:37.536Z,78.06
2023-04-15T07:09:05.936Z,78.04
2023-04-15T07:11:33.909Z,78.16
2023-04-15T07:14:03.235Z,78.47
2023-04-15T07:16:31.395Z,78.01
2023-04-15T07:18:59.181Z,78.57
2023-04-15T07:21:27.653Z,77.67
2023-04-15T07:23:55.481Z,78.84
2023-04-15T07:26:23.359Z,78.18
2023-04-15T07:28:51.481Z,78.43
2023-04-15T07:31:20.825Z,78.46
2023-04-15T07:33:48.629Z,78.10
2023-04-15T07:36:16.480Z,78.98
2023-04-15T07:38:44.215Z,78.87
2023-04-15T07:41:12.489Z,78.86
2023-04-15T07:43:40.211Z,78.37
2023-04-15T07:46:08.324Z,78.20
2023-04-15T07:48:37.604Z,78.48
2023-04-15T07:51:06.020Z,78.34
2023-04-15T07:53:34.003Z,78.49
2023-04-15T07:56:01.799Z,78.88
2023-04-15T07:58:29.623Z,78.92
2023-04-15T08:00:57.667Z,79.19
2023-04-15T08:03:26.858Z,78.69
2023-04-15T08:05:56.074Z,79.23
2023-04-15T08:08:23.906Z,79.49
2023-04-15T08:10:52.825Z,79.38
2023-04-15T08:13:21.037Z,78.99
2023-04-15T08:16:14.466Z,79.42
2023-04-15T08:18:42.314Z,79.27
2023-04-15T08:21:11.491Z,78.87
2023-04-15T08:23:39.619Z,79.26
2023-04-15T08:26:08.638Z,79.29
2023-04-15T08:28:36.500Z,79.35
2023-04-15T08:31:04.393Z,79.35
2023-04-15T08:33:32.244Z,79.75
2023-04-15T08:36:00.008Z,79.69
2023-04-15T08:38:29.192Z,79.89
2023-04-15T08:40:59.372Z,79.28
2023-04-15T08:43:30.649Z,79.99
2023-04-15T08:46:00.201Z,79.22
2023-04-15T08:48:30.286Z,79.87
2023-04-15T08:50:59.049Z,79.58
2023-04-15T08:53:30.304Z,80.10
2023-04-15T08:56:01.395Z,80.10
2023-04-15T08:58:29.979Z,79.75
2023-04-15T09:00:58.425Z,79.43
2023-04-15T09:03:26.804Z,79.76
2023-04-15T09:05:55.317Z,79.90
2023-04-15T09:08:23.103Z,79.66
2023-04-15T09:10:52.576Z,79.86
2023-04-15T09:13:20.360Z,80.01
2023-04-15T09:15:48.449Z,80.37
2023-04-15T09:18:28.556Z,80.05
2023-04-15T09:20:56.603Z,80.25
2023-04-15T09:23:24.426Z,80.32
2023-04-15T09:25:53.698Z,80.83
2023-04-15T09:28:27.037Z,80.63
2023-04-15T09:30:57.734Z,80.90
2023-04-15T09:33:27.048Z,80.44
2023-04-15T09:36:00.068Z,80.67
2023-04-15T09:38:28.413Z,80.59
2023-04-15T09:40:58.015Z,80.51
2023-04-15T09:43:39.050Z,80.91
2023-04-15T09:46:07.039Z,80.76
2023-04-15T09:48:34.866Z,80.72
2023-04-15T09:51:02.990Z,80.33
2023-04-15T09:53:31.909Z,80.68
2023-04-15T09:56:02.337Z,81.20
2023-04-15T09:58:31.800Z,80.66
2023-04-15T10:01:01.725Z,80.85
2023-04-15T10:03:31.894Z,80.60
2023-04-15T10:06:02.028Z,80.54
2023-04-15T10:08:31.556Z,80.95
2023-04-15T10:11:01.305Z,81.10
2023-04-15T10:13:33.263Z,81.05
2023-04-15T10:16:06.415Z,81.11
2023-04-15T10:18:38.972Z,81.06
2023-04-15T10:21:07.835Z,81.19
2023-04-15T10:23:35.612Z,81.65
2023-04-15T10:26:06.116Z,81.38
2023-04-15T10:28:33.897Z,81.28
2023-04-15T10:31:02.564Z,81.76
2023-04-15T10:33:31.125Z,81.22
2023-04-15T10:35:59.405Z,81.59
2023-04-15T10:38:35.262Z,81.08
2023-04-15T10:41:17.833Z,81.20
2023-04-15T10:43:49.563Z,81.92
2023-04-15T10:46:20.843Z,81.29
2023-04-15T10:48:50.393Z,81.74
2023-04-15T10:51:27.321Z,81.79
2023-04-15T10:53:57.970Z,81.52
2023-04-15T10:56:29.118Z,81.19
2023-04-15T10:58:56.908Z,82.16
2023-04-15T11:01:51.457Z,81.36
2023-04-15T11:04:52.803Z,81.91
2023-04-15T11:07:37.836Z,81.84
2023-04-15T11:10:26.260Z,81.73
2023-04-15T11:12:58.755Z,82.00
2023-04-15T11:15:30.255Z,81.89
2023-04-15T11:17:59.139Z,82.55
2023-04-15T11:20:27.488Z,82.06
2023-04-15T11:23:08.099Z,82.22
2023-04-15T11:25:44.309Z,82.01
2023-04-15T11:28:14.430Z,82.07
2023-04-15T11:30:43.558Z,82.55
2023-04-15T11:33:13.979Z,82.05
2023-04-15T11:35:42.649Z,82.56
2023-04-15T11:38:12.181Z,82.19
2023-04-15T11:40:40.935Z,82.18
2023-04-15T11:43:09.799Z,82.55
2023-04-15T11:45:49.685Z,82.48
2023-04-15T11:48:17.624Z,82.40
2023-04-15T11:50:45.589Z,82.26
2023-04-15T11:53:14.845Z,82.88
2023-04-15T11:55:45.089Z,82.84
2023-04-15T11:58:16.350Z,82.97
2023-04-15T12:00:49.882Z,82.79
2023-04-15T12:03:26.603Z,82.82
2023-04-15T12:06:09.110Z,82.77
2023-04-15T12:09:02.794Z,82.94
2023-04-15T12:11:38.728Z,83.02
2023-04-15T12:14:09.414Z,82.46
2023-04-15T12:16:46.680Z,83.09
2023-04-15T12:19:23.292Z,83.13
2023-04-15T12:21:51.444Z,82.56
2023-04-15T12:24:22.695Z,82.52
2023-04-15T12:26:52.826Z,82.70
2023-04-15T12:29:21.455Z,83.19
2023-04-15T12:31:52.982Z,83.30
2023-04-15T12:34:27.863Z,82.93
2023-04-15T12:36:56.478Z,83.43
2023-04-15T12:39:25.327Z,82.93
2023-04-15T12:41:53.120Z,82.70
2023-04-15T12:44:22.085Z,83.03
2023-04-15T12:46:52.563Z,83.22
2023-04-15T12:49:20.953Z,83.32
2023-04-15T12:51:49.958Z,83.64
2023-04-15T12:54:17.947Z,83.25
2023-04-15T12:56:46.064Z,83.35
2023-04-15T12:59:14.050Z,83.15
2023-04-15T13:01:42.055Z,83.35
2023-04-15T13:04:12.315Z,83.17
2023-04-15T13:06:40.266Z,83.76
2023-04-15T13:09:08.167Z,83.69
2023-04-15T13:11:36.500Z,83.62
2023-04-15T13:14:06.826Z,83.77
2023-04-15T13:16:35.568Z,84.00
2023-04-15T13:19:05.420Z,83.90
2023-04-15T13:21:35.944Z,83.40
2023-04-15T13:24:04.929Z,83.32
2023-04-15T13:26:33.106Z,83.44
2023-04-15T13:29:00.902Z,83.65
2023-04-15T13:31:28.825Z,83.70
2023-04-15T13:33:57.911Z,83.67
2023-04-15T13:36:26.363Z,83.91
2023-04-15T13:38:55.726Z,83.88
2023-04-15T13:41:23.496Z,83.66
2023-04-15T13:43:51.219Z,84.07
2023-04-15T13:46:19.158Z,83.62
2023-04-15T13:48:46.996Z,84.13
2023-04-15T13:51:14.759Z,83.86
2023-04-15T13:53:42.526Z,83.82
2023-04-15T13:56:11.785Z,83.76
2023-04-15T13:58:39.760Z,83.77
2023-04-15T14:01:07.786Z,84.15
2023-04-15T14:03:36.603Z,83.83
2023-04-15T14:06:05.536Z,84.49
2023-04-15T14:08:33.311Z,84.28
2023-04-15T14:11:01.109Z,84.00
2023-04-15T14:13:30.394Z,84.19
2023-04-15T14:15:58.301Z,84.00
2023-04-15T14:18:26.312Z,84.25
2023-04-15T14:20:54.497Z,84.41
2023-04-15T14:23:22.380Z,84.08
2023-04-15T14:25:51.930Z,84.22
2023-04-15T14:28:19.669Z,84.55
2023-04-15T14:30:48.846Z,84.20
2023-04-15T14:33:16.923Z,84.62
2023-04-15T14:35:44.746Z,84.63
2023-04-15T14:38:12.523Z,84.50
2023-04-15T14:40:40.279Z,84.48
2023-04-15T14:43:08.104Z,84.30
2023-04-15T14:45:36.317Z,84.79
2023-04-15T14:48:06.483Z,84.58
2023-04-15T14:50:34.480Z,84.55
2023-04-15T14:53:02.520Z,84.50
2023-04-15T14:55:30.284Z,84.71
2023-04-15T14:57:58.010Z,84.62
2023-04-15T15:00:25.717Z,84.53
2023-04-15T15:02:54.412Z,85.02
2023-04-15T15:05:23.792Z,84.68
2023-04-15T15:07:51.620Z,84.89
2023-04-15T15:10:35.377Z,85.15
2023-04-15T15:13:09.877Z,84.97
2023-04-15T15:15:39.206Z,85.19
2023-04-15T15:18:07.289Z,85.17
2023-04-15T15:20:36.459Z,85.09
2023-04-15T15:23:04.300Z,84.74
2023-04-15T15:25:32.177Z,85.26
2023-04-15T15:28:00.033Z,85.04
2023-04-15T15:30:27.831Z,85.02
2023-04-15T15:32:55.648Z,85.10
2023-04-15T15:35:23.683Z,85.29
2023-04-15T15:37:53.618Z,85.26
2023-04-15T15:40:21.517Z,85.20
2023-04-15T15:42:50.760Z,85.26
2023-04-15T15:45:18.698Z,85.34
2023-04-15T15:47:46.589Z,85.44
2023-04-15T15:50:15.427Z,85.41
2023-04-15T15:52:43.224Z,85.53
2023-04-15T15:55:12.478Z,85.41
2023-04-15T15:57:40.247Z,85.54
2023-04-15T16:00:11.741Z,85.61
2023-04-15T16:03:05.193Z,85.67
2023-04-15T16:05:28.621Z,85.68
2023-04-15T16:07:56.416Z,85.70
2023-04-15T16:10:25.659Z,85.67
2023-04-15T16:12:53.630Z,85.66
2023-04-15T16:15:21.469Z,85.53
2023-04-15T16:17:49.266Z,85.83
2023-04-15T16:20:17.330Z,85.87
2023-04-15T16:22:45.232Z,85.97
2023-04-15T16:25:13.130Z,85.88
2023-04-15T16:27:57.126Z,85.81
2023-04-15T16:30:27.054Z,86.00
2023-04-15T16:32:54.891Z,85.95
2023-04-15T16:35:22.663Z,85.92
2023-04-15T16:37:50.538Z,86.06
2023-04-15T16:40:18.487Z,85.90
2023-04-15T16:42:47.730Z,85.95
2023-04-15T16:45:15.819Z,86.02
2023-04-15T16:47:44.023Z,85.81
2023-04-15T16:50:12.366Z,86.19
2023-04-15T16:52:40.198Z,86.25
2023-04-15T16:55:08.270Z,86.16
2023-04-15T16:58:00.645Z,86.13
2023-04-15T17:00:25.223Z,86.28
2023-04-15T17:02:53.161Z,86.22
2023-04-15T17:05:21.060Z,86.17
2023-04-15T17:07:48.886Z,86.34
2023-04-15T17:10:16.946Z,86.40
2023-04-15T17:12:44.716Z,86.20
2023-04-15T17:15:12.553Z,86.31
2023-04-15T17:17:41.943Z,86.36
2023-04-15T17:20:10.604Z,86.45
2023-04-15T17:22:38.439Z,86.48
2023-04-15T17:25:07.361Z,86.42
2023-04-15T17:27:35.208Z,86.64
2023-04-15T17:30:03.045Z,86.36
2023-04-15T17:32:34.241Z,86.38
2023-04-15T17:35:06.299Z,86.60
2023-04-15T17:37:34.288Z,86.63
2023-04-15T17:40:02.351Z,86.47
2023-04-15T17:42:30.172Z,86.63
2023-04-15T17:44:57.944Z,86.57
2023-04-15T17:47:25.796Z,86.73
2023-04-15T17:49:53.561Z,86.68
2023-04-15T17:52:22.707Z,86.77
2023-04-15T17:54:50.682Z,86.72
2023-04-15T17:57:18.450Z,86.75
2023-04-15T17:59:47.721Z,86.70
2023-04-15T18:02:16.206Z,86.82
2023-04-15T18:04:44.125Z,86.89
2023-04-15T18:07:12.123Z,86.87
2023-04-15T18:09:41.564Z,86.81
2023-04-15T18:12:09.437Z,86.97
2023-04-15T18:14:37.737Z,87.07
2023-04-15T18:17:05.934Z,86.99
2023-04-15T18:19:33.711Z,86.83
2023-04-15T18:22:01.467Z,87.02
2023-04-15T18:24:29.483Z,87.02
2023-04-15T18:26:59.014Z,87.16
2023-04-15T18:29:26.840Z,86.91
2023-04-15T18:31:54.663Z,87.14
2023-04-15T18:34:22.533Z,87.04
2023-04-15T18:36:50.418Z,87.27
2023-04-15T18:39:18.367Z,87.24
2023-04-15T18:41:46.152Z,87.17
2023-04-15T18:44:15.442Z,87.14
2023-04-15T18:46:43.308Z,87.11
2023-04-15T18:49:11.209Z,87.16
2023-04-15T18:51:39.274Z,87.20
2023-04-15T18:54:07.083Z,87.17
2023-04-15T18:56:34.850Z,86.89
2023-04-15T18:59:25.337Z,87.28
2023-04-15T19:01:52.245Z,87.22
2023-04-15T19:04:20.395Z,87.43
2023-04-15T19:06:48.560Z,87.23
2023-04-15T19:09:16.897Z,87.34
2023-04-15T19:11:44.676Z,87.34
2023-04-15T19:14:12.478Z,87.19
2023-04-15T19:16:40.322Z,87.53
2023-04-15T19:19:09.514Z,87.36
2023-04-15T19:21:37.509Z,87.55
2023-04-15T19:24:05.465Z,87.44
2023-04-15T19:26:33.376Z,87.46
2023-04-15T19:29:01.207Z,87.56
2023-04-15T19:31:28.993Z,87.47
2023-04-15T19:33:56.753Z,87.69
2023-04-15T19:36:26.610Z,87.50
2023-04-15T19:38:54.459Z,87.41
2023-04-15T19:41:22.211Z,87.75
2023-04-15T19:43:49.958Z,87.71
2023-04-15T19:46:17.816Z,87.53
2023-04-15T19:48:45.740Z,87.80
2023-04-15T19:51:13.517Z,87.82
2023-04-15T19:53:42.750Z,87.69
2023-04-15T19:56:10.956Z,87.77
2023-04-15T19:58:38.809Z,87.82
2023-04-15T20:01:06.630Z,87.94
2023-04-15T20:03:34.573Z,87.83
2023-04-15T20:06:02.466Z,87.76
2023-04-15T20:08:30.229Z,87.66
2023-04-15T20:11:01.076Z,87.86
2023-04-15T20:13:28.892Z,87.89
2023-04-15T20:15:56.623Z,88.04
2023-04-15T20:18:24.431Z,87.91
2023-04-15T20:20:52.283Z,87.93
2023-04-15T20:23:20.033Z,87.88
2023-04-15T20:25:47.818Z,88.00
2023-04-15T20:28:18.056Z,88.11
2023-04-15T20:30:45.878Z,87.99
2023-04-15T20:33:13.774Z,88.12
2023-04-15T20:35:41.767Z,87.95
2023-04-15T20:38:10.514Z,87.89
2023-04-15T20:40:39.477Z,88.10
2023-04-15T20:43:08.344Z,88.16
2023-04-15T20:45:37.611Z,88.09
2023-04-15T20:48:06.348Z,88.20
2023-04-15T20:50:34.147Z,88.28
2023-04-15T20:53:01.972Z,88.45
2023-04-15T20:55:30.782Z,88.29
2023-04-15T20:57:59.000Z,88.18
2023-04-15T21:00:26.824Z,88.24
2023-04-15T21:02:56.255Z,88.26
2023-04-15T21:05:24.173Z,88.24
2023-04-15T21:07:51.976Z,88.25
2023-04-15T21:10:19.948Z,88.33
2023-04-15T21:12:47.707Z,88.52
2023-04-15T21:15:15.490Z,88.11
2023-04-15T21:17:43.328Z,88.32
2023-04-15T21:20:13.534Z,88.45
2023-04-15T21:22:41.341Z,88.45
2023-04-15T21:25:10.151Z,88.48
2023-04-15T21:27:37.950Z,88.53
2023-04-15T21:30:06.690Z,88.49
2023-04-15T21:32:34.508Z,88.48
2023-04-15T21:35:02.291Z,88.38
2023-04-15T21:37:31.713Z,88.67
2023-04-15T21:39:59.516Z,88.48
2023-04-15T21:42:27.330Z,88.50
2023-04-15T21:44:55.068Z,88.75
2023-04-15T21:47:22.847Z,88.60
2023-04-15T21:49:51.846Z,88.73
2023-04-15T21:52:19.661Z,88.63
2023-04-15T21:54:48.825Z,88.66
2023-04-15T21:57:16.682Z,88.66
2023-04-15T21:59:44.450Z,88.61
2023-04-15T22:06:36.062Z,88.79
2023-04-15T22:09:03.853Z,88.73
2023-04-15T22:11:32.274Z,88.65
2023-04-15T22:14:00.648Z,88.65
2023-04-15T22:16:28.658Z,89.08
2023-04-15T22:18:56.631Z,89.01
2023-04-15T22:21:24.498Z,88.85
2023-04-15T22:24:38.699Z,88.87
2023-04-15T22:26:42.347Z,88.85
2023-04-15T22:29:10.623Z,88.93
2023-04-15T22:31:38.420Z,88.90
2023-04-15T22:34:06.226Z,89.16
2023-04-15T22:36:34.124Z,88.61
2023-04-15T22:39:03.471Z,88.89
2023-04-15T22:41:31.575Z,88.92
2023-04-15T22:43:59.323Z,88.97
2023-04-15T22:46:27.156Z,88.94
2023-04-15T22:48:55.103Z,88.95
2023-04-15T22:51:23.513Z,88.99
2023-04-15T22:53:51.421Z,89.15
2023-04-15T22:56:21.484Z,89.15
2023-04-15T22:58:49.885Z,89.02
2023-04-15T23:01:17.967Z,89.09
2023-04-15T23:03:56.983Z,89.02
2023-04-15T23:06:31.832Z,89.05
2023-04-15T23:08:59.643Z,88.78
2023-04-15T23:11:28.797Z,89.28
2023-04-15T23:13:56.582Z,89.16
2023-04-15T23:16:24.429Z,89.06
2023-04-15T23:18:52.240Z,89.11
2023-04-15T23:21:19.992Z,89.12
2023-04-15T23:23:47.780Z,89.06
2023-04-15T23:26:15.587Z,89.14
2023-04-15T23:28:44.715Z,89.12
2023-04-15T23:31:12.543Z,89.20
2023-04-15T23:33:40.464Z,89.30
2023-04-15T23:36:08.591Z,89.25
2023-04-15T23:38:36.384Z,89.24
2023-04-15T23:41:04.187Z,89.06
2023-04-15T23:43:31.973Z,89.37
2023-04-15T23:46:01.093Z,89.23
2023-04-15T23:48:30.103Z,89.22
2023-04-15T23:50:57.990Z,89.26
2023-04-15T23:53:25.776Z,89.46
2023-04-15T23:55:53.558Z,88.87
2023-04-15T23:58:21.299Z,88.95
